createdAt,value
2019-05-21T00:08:21.553Z,3.30
2019-05-21T00:28:31.131Z,3.12
2019-05-21T00:48:43.028Z,2.94
2019-05-21T01:08:44.304Z,2.87
2019-05-21T01:28:44.874Z,2.75
2019-05-21T01:48:44.395Z,2.82
2019-05-21T02:08:54.057Z,2.78
2019-05-21T02:29:03.623Z,3.43
2019-05-21T02:49:13.153Z,3.97
2019-05-21T03:09:22.807Z,3.51
2019-05-21T03:29:34.600Z,3.02
2019-05-21T03:49:34.241Z,2.89
2019-05-21T04:09:46.218Z,2.79
2019-05-21T04:29:48.365Z,2.91
2019-05-21T04:49:52.396Z,2.56
2019-05-21T05:09:51.960Z,2.82
2019-05-21T05:30:01.499Z,2.68
2019-05-21T05:50:11.079Z,2.87
2019-05-21T06:10:25.141Z,2.92
2019-05-21T06:30:24.545Z,3.04
2019-05-21T06:50:37.230Z,3.16
2019-05-21T07:10:43.051Z,3.18
2019-05-21T07:30:57.129Z,3.36
2019-05-21T07:50:56.567Z,3.27
2019-05-21T08:11:06.267Z,3.68
2019-05-21T08:31:15.697Z,3.42
2019-05-21T08:51:25.327Z,3.52
2019-05-21T09:11:35.182Z,3.41
2019-05-21T09:31:44.764Z,3.42
2019-05-21T09:51:57.108Z,2.73
2019-05-21T10:11:56.645Z,2.81
2019-05-21T10:32:06.170Z,2.57
2019-05-21T10:52:15.584Z,2.76
2019-05-21T11:12:27.300Z,2.96
2019-05-21T11:32:27.946Z,3.26
2019-05-21T11:52:27.495Z,3.41
2019-05-21T12:12:37.029Z,3.58
2019-05-21T12:32:50.681Z,3.35
2019-05-21T12:52:50.227Z,3.84
2019-05-21T13:12:58.409Z,3.42
2019-05-21T13:33:08.266Z,3.48
2019-05-21T13:53:17.984Z,2.77
2019-05-21T14:13:27.546Z,2.94
2019-05-21T14:33:37.065Z,2.88
2019-05-21T14:53:46.579Z,2.77
2019-05-21T15:13:56.393Z,2.95
2019-05-21T15:34:05.941Z,3.37
2019-05-21T15:54:15.581Z,3.48
2019-05-21T16:14:28.104Z,3.72
2019-05-21T16:34:31.807Z,3.70
2019-05-21T16:54:28.583Z,3.36
2019-05-21T17:14:28.697Z,2.84
2019-05-21T17:34:28.411Z,2.85
2019-05-21T17:54:37.868Z,3.07
2019-05-21T18:14:51.906Z,2.65
2019-05-21T18:34:57.100Z,2.81
2019-05-21T18:54:56.737Z,2.52
2019-05-21T19:15:09.035Z,3.21
2019-05-21T19:35:08.754Z,3.54
2019-05-21T19:55:18.272Z,3.86
2019-05-21T20:15:27.697Z,4.62
2019-05-21T20:35:37.618Z,4.10
2019-05-21T20:55:47.076Z,3.96
2019-05-21T21:15:56.486Z,4.42
2019-05-21T21:36:05.886Z,4.14
2019-05-21T21:56:17.720Z,4.26
2019-05-21T22:16:17.412Z,4.85
2019-05-21T22:36:27.928Z,4.78
2019-05-21T22:56:27.410Z,4.82
2019-05-21T23:16:39.221Z,4.71
2019-05-21T23:36:38.679Z,4.43
2019-05-21T23:56:48.192Z,4.35
